Startpagina
METAR-TAF:

METAR-TAF

Vliegvelden :

Yakutat, Alaska, Verenigde Staten

breedte: 59-31N, lengte: 139-40W, hoogte: 11 m

Actueel weer

Dit bericht is 57 minuten geleden gemaakt, om 17:53 UTC
Weinig wind
Temperatuur 2°C
Vochtigheid 51%
Druk 1034 hPa
Zicht: 16.1 km
Onbewolkt

METAR: PAYA 101753Z AUTO 00000KT 10SM CLR 02/M07 A3052 RMK AO2 SLP336 I6001 T00221072 10022 21050 53015 TSNO

Tijdstip: 10:50 (18:50 UTC)

Verwachting

Dit bericht is 1 uur en het 24 minuten geleden gemaakt, om 17:26 UTC
Verwachting geldig van 10 om 18 UTC tot 11 om 18 UTC
Wind 3 kt uit variabele richting
Zicht: 10 km
Onbewolkt

TAF: PAYA 101726Z 1018/1118 VRB03KT P6SM SKC AMD LTD TO CLD VIS AND WIND

Waarnemingen en weersverwachtingen van meer dan 4000 vliegvelden (METAR en TAF).

De beschikbare stations zijn de gele en rode punten op de kaart.

Ga met uw muis naar het station om de naam te zien.

Klik dan om waarnemingen en weersverwachtingen te zien.

kaart wijzigen: klik op de groene knoppen met een zwart kruis om in te zoomen, op de groene knop met een streepje om uit te zoomen of op de groene pijlen voor aangrenzende kaarten.


METAR-TAF: